createdAt,value
2018-01-22T00:01:37.950Z,43.57
2018-01-22T00:07:42.238Z,32.23
2018-01-22T00:13:46.383Z,33.87
2018-01-22T00:19:50.978Z,26.63
2018-01-22T00:25:55.423Z,31.17
2018-01-22T00:31:59.882Z,36.17
2018-01-22T00:38:04.113Z,44.37
2018-01-22T00:44:08.938Z,50.70
2018-01-22T00:50:13.734Z,54.80
2018-01-22T00:56:17.825Z,49.83
2018-01-22T01:02:22.768Z,53.57
2018-01-22T01:08:26.840Z,37.27
2018-01-22T01:14:31.483Z,37.77
2018-01-22T01:20:35.937Z,34.90
2018-01-22T01:26:40.592Z,49.40
2018-01-22T01:32:44.923Z,35.20
2018-01-22T01:38:49.171Z,31.43
2018-01-22T01:44:53.129Z,37.23
2018-01-22T01:50:57.150Z,29.87
2018-01-22T01:57:01.413Z,38.27
2018-01-22T02:03:05.890Z,39.20
2018-01-22T02:09:10.135Z,42.10
2018-01-22T02:15:14.426Z,24.00
2018-01-22T02:21:19.760Z,22.60
2018-01-22T02:27:23.803Z,15.93
2018-01-22T02:33:27.882Z,22.53
2018-01-22T02:39:32.981Z,26.70
2018-01-22T02:45:37.357Z,21.20
2018-01-22T02:51:41.567Z,19.47
2018-01-22T02:57:45.767Z,28.67
2018-01-22T03:03:50.031Z,23.70
2018-01-22T03:09:54.132Z,21.07
2018-01-22T03:15:58.369Z,34.63
2018-01-22T03:22:02.651Z,35.10
2018-01-22T03:28:07.114Z,36.20
2018-01-22T03:34:11.143Z,42.13
2018-01-22T03:40:15.354Z,58.77
2018-01-22T03:46:19.489Z,65.03
2018-01-22T03:52:23.654Z,64.33
2018-01-22T03:58:27.955Z,62.33
2018-01-22T04:04:32.085Z,95.37
2018-01-22T04:10:36.263Z,88.33
2018-01-22T04:16:40.683Z,99.53
2018-01-22T04:22:45.858Z,74.43
2018-01-22T04:28:50.561Z,76.97
2018-01-22T04:34:54.522Z,81.03
2018-01-22T04:40:59.529Z,73.33
2018-01-22T04:47:03.707Z,61.47
2018-01-22T04:53:08.068Z,129.23
2018-01-22T04:59:12.649Z,92.40
2018-01-22T05:05:16.683Z,85.77
2018-01-22T05:11:20.806Z,72.93
2018-01-22T05:17:24.949Z,60.83
2018-01-22T05:23:29.166Z,50.80
2018-01-22T05:29:33.714Z,63.97
2018-01-22T05:35:38.318Z,72.60
2018-01-22T05:41:42.963Z,68.57
2018-01-22T05:47:48.643Z,82.13
2018-01-22T05:53:53.391Z,106.40
2018-01-22T05:59:59.075Z,96.83
2018-01-22T06:06:03.713Z,87.03
2018-01-22T06:12:08.463Z,113.87
2018-01-22T06:18:13.573Z,144.33
2018-01-22T06:24:18.275Z,130.60
2018-01-22T06:30:23.560Z,103.60
2018-01-22T06:36:28.046Z,77.77
2018-01-22T06:42:32.157Z,93.13
2018-01-22T06:48:36.661Z,213.10
2018-01-22T06:54:40.883Z,207.53
2018-01-22T07:00:44.986Z,226.93
2018-01-22T07:06:49.436Z,305.07
2018-01-22T07:12:53.725Z,329.30
2018-01-22T07:18:57.947Z,330.97
2018-01-22T07:25:02.026Z,326.53
2018-01-22T07:31:06.217Z,298.00
2018-01-22T07:37:10.410Z,256.27
2018-01-22T07:43:15.450Z,86.55
2018-01-22T07:49:20.954Z,80.30
2018-01-22T12:35:32.608Z,34.87
2018-01-22T12:54:38.872Z,36.87
2018-01-22T13:00:44.351Z,25.60
2018-01-22T13:06:52.665Z,15.10
2018-01-22T13:25:58.289Z,45.37
2018-01-22T13:32:03.654Z,94.10
2018-01-22T13:38:10.019Z,56.43
2018-01-22T13:44:15.357Z,90.93
2018-01-22T13:50:20.536Z,88.03
2018-01-22T13:56:25.940Z,66.70
2018-01-22T14:02:31.485Z,62.87
2018-01-22T14:08:36.783Z,68.20
2018-01-22T14:14:42.227Z,79.77
2018-01-22T14:20:47.537Z,47.30
2018-01-22T14:26:53.485Z,90.83
2018-01-22T14:32:58.523Z,93.83
2018-01-22T14:39:03.910Z,95.53
2018-01-22T14:45:09.310Z,67.13
2018-01-22T14:51:14.309Z,50.20
2018-01-22T14:57:19.473Z,44.83
2018-01-22T15:03:26.486Z,35.97
2018-01-22T15:09:32.457Z,68.37
2018-01-22T15:15:37.648Z,73.17
2018-01-22T15:21:42.650Z,64.50
2018-01-22T15:27:47.778Z,51.07
2018-01-22T15:33:53.320Z,41.80
2018-01-22T15:39:58.894Z,31.67
2018-01-22T15:46:04.153Z,92.77
2018-01-22T15:52:09.766Z,41.67
2018-01-22T15:58:14.830Z,104.67
2018-01-22T16:04:19.923Z,78.57
2018-01-22T16:10:24.934Z,78.30
2018-01-22T16:16:30.198Z,77.53
2018-01-22T16:22:35.504Z,105.73
2018-01-22T16:28:41.102Z,70.17
2018-01-22T16:34:46.265Z,70.30
2018-01-22T16:40:51.608Z,58.90
2018-01-22T16:47:02.718Z,53.47
2018-01-22T16:53:07.810Z,70.67
2018-01-22T16:59:13.077Z,65.27
2018-01-22T17:05:18.138Z,55.97
2018-01-22T17:11:23.495Z,45.47
2018-01-22T17:17:28.571Z,52.63
2018-01-22T17:23:33.665Z,72.00
2018-01-22T17:29:39.251Z,77.00
2018-01-22T17:35:44.503Z,67.83
2018-01-22T17:41:50.093Z,76.33
2018-01-22T17:47:55.260Z,85.67
2018-01-22T17:54:00.564Z,74.00
2018-01-22T18:00:05.604Z,71.97
2018-01-22T18:06:11.351Z,66.23
2018-01-22T18:12:16.538Z,76.70
2018-01-22T18:18:21.624Z,64.73
2018-01-22T18:24:27.087Z,66.67
2018-01-22T18:30:32.170Z,44.40
2018-01-22T18:36:37.768Z,32.03
2018-01-22T18:42:42.900Z,29.30
2018-01-22T18:48:48.117Z,44.17
2018-01-22T18:54:53.209Z,63.00
2018-01-22T19:00:58.390Z,24.00
2018-01-22T19:07:03.529Z,22.67
2018-01-22T19:13:09.376Z,30.30
2018-01-22T19:19:14.750Z,25.03
2018-01-22T19:25:19.824Z,30.43
2018-01-22T19:31:25.055Z,44.03
2018-01-22T19:37:30.385Z,24.50
2018-01-22T19:43:36.021Z,22.80
2018-01-22T19:49:41.085Z,13.97
2018-01-22T19:55:46.482Z,15.17
2018-01-22T20:01:51.763Z,23.63
2018-01-22T20:07:56.878Z,15.70
2018-01-22T20:14:02.168Z,29.40
2018-01-22T20:20:07.465Z,57.87
2018-01-22T20:26:12.490Z,77.67
2018-01-22T20:32:17.535Z,83.23
2018-01-22T20:38:22.612Z,34.77
2018-01-22T20:44:27.874Z,72.30
2018-01-22T20:50:32.965Z,54.13
2018-01-22T20:56:38.231Z,39.30
2018-01-22T21:02:43.432Z,34.17
2018-01-22T21:08:48.899Z,53.83
2018-01-22T21:14:54.010Z,177.03
2018-01-22T21:20:59.109Z,215.27
2018-01-22T21:27:04.184Z,185.57
2018-01-22T21:33:09.313Z,235.90
2018-01-22T21:39:14.418Z,103.07
2018-01-22T21:45:19.628Z,81.50
2018-01-22T21:51:24.784Z,58.83
2018-01-22T21:57:30.123Z,50.87
2018-01-22T22:03:35.409Z,72.20
2018-01-22T22:09:40.489Z,113.40
2018-01-22T22:15:45.526Z,153.70
2018-01-22T22:21:50.779Z,42.27
2018-01-22T22:27:56.046Z,68.33
2018-01-22T22:34:01.169Z,54.87
2018-01-22T22:40:06.396Z,38.07
2018-01-22T22:46:11.559Z,39.20
2018-01-22T22:52:16.778Z,27.43
2018-01-22T22:58:21.873Z,28.17
2018-01-22T23:04:27.115Z,23.83
2018-01-22T23:10:32.700Z,24.77
2018-01-22T23:16:38.235Z,21.50
2018-01-22T23:22:43.602Z,17.13
2018-01-22T23:28:48.873Z,11.97
2018-01-22T23:34:53.865Z,6.60
2018-01-22T23:40:58.946Z,6.27
2018-01-22T23:47:04.348Z,3.20
2018-01-22T23:53:09.579Z,3.10
2018-01-22T23:59:15.007Z,2.37
